Time;durP1;ratioP1;P1;durP2;ratioP2;P2;SDS_P1;SDS_P2;PMS_P1;PMS_P2;Temp;Humidity;BMP_temperature;BMP_pressure;BME280_temperature;BME280_humidity;BME280_pressure;Samples;Min_cycle;Max_cycle;Signal;HPM_P1;HPM_P2
2023/11/22 00:02:26;;;;;;;10.30;8.23;;;6.10;99.90;;;;;;5111729;28;20078;-56
2023/11/22 00:04:52;;;;;;;14.77;8.82;;;6.00;99.90;;;;;;5116390;28;20043;-57
2023/11/22 00:07:18;;;;;;;18.48;11.75;;;6.00;99.90;;;;;;5132481;28;20049;-55
2023/11/22 00:09:43;;;;;;;18.48;11.77;;;6.00;99.90;;;;;;5131962;28;20166;-59
2023/11/22 00:12:09;;;;;;;14.93;10.07;;;5.90;99.90;;;;;;5102459;28;20115;-56
2023/11/22 00:14:36;;;;;;;12.63;8.60;;;5.80;99.90;;;;;;5131697;27;20132;-55
2023/11/22 00:17:02;;;;;;;11.57;8.05;;;5.80;99.90;;;;;;5127636;27;20035;-55
2023/11/22 00:19:27;;;;;;;13.07;9.18;;;5.80;99.90;;;;;;5131495;27;20042;-56
2023/11/22 00:21:53;;;;;;;13.20;9.23;;;5.80;99.90;;;;;;5135902;27;20100;-54
2023/11/22 00:24:19;;;;;;;17.60;8.57;;;5.90;99.90;;;;;;5103746;27;20040;-56
2023/11/22 00:26:44;;;;;;;13.23;8.93;;;5.90;99.90;;;;;;5115178;28;20497;-57
2023/11/22 00:29:10;;;;;;;12.93;8.98;;;5.80;99.90;;;;;;5115222;28;20043;-56
2023/11/22 00:31:36;;;;;;;15.30;8.07;;;5.80;99.90;;;;;;5115209;28;20042;-56
2023/11/22 00:34:01;;;;;;;12.13;8.02;;;5.70;99.90;;;;;;5115165;28;20047;-54
2023/11/22 00:36:27;;;;;;;10.73;7.85;;;5.80;99.90;;;;;;5115124;28;20537;-54
2023/11/22 00:38:53;;;;;;;11.63;7.10;;;5.80;99.90;;;;;;5115255;28;20044;-56
2023/11/22 00:41:18;;;;;;;9.48;6.80;;;5.70;99.90;;;;;;5115261;28;20067;-56
2023/11/22 00:43:44;;;;;;;12.18;7.65;;;5.80;99.90;;;;;;5096933;28;20079;-56
2023/11/22 00:46:10;;;;;;;10.38;6.82;;;5.70;99.90;;;;;;5114868;28;20485;-56
2023/11/22 00:48:36;;;;;;;9.77;7.20;;;5.70;99.90;;;;;;5114821;28;20040;-55
2023/11/22 00:51:08;;;;;;;8.65;6.25;;;5.70;99.90;;;;;;5114762;28;20076;-53
2023/11/22 00:53:35;;;;;;;10.52;7.32;;;5.70;99.90;;;;;;5114791;28;20039;-54
2023/11/22 00:56:02;;;;;;;11.25;6.70;;;5.60;99.90;;;;;;5115050;28;20504;-54
2023/11/22 00:58:28;;;;;;;11.75;6.93;;;5.60;99.90;;;;;;5114610;28;20040;-56
2023/11/22 01:00:53;;;;;;;9.13;6.32;;;5.60;99.90;;;;;;5114576;28;20040;-56
2023/11/22 01:03:19;;;;;;;9.93;7.18;;;5.60;99.90;;;;;;5114908;28;20047;-53
2023/11/22 01:05:46;;;;;;;9.27;7.13;;;5.50;99.90;;;;;;5114526;28;20063;-56
2023/11/22 01:08:13;;;;;;;12.25;7.18;;;5.40;99.90;;;;;;5114303;28;20050;-52
2023/11/22 01:10:39;;;;;;;13.43;6.72;;;5.40;99.90;;;;;;5114329;28;20036;-55
2023/11/22 01:13:05;;;;;;;10.05;7.13;;;5.40;99.90;;;;;;5114467;28;20050;-53
2023/11/22 01:15:31;;;;;;;12.80;7.45;;;5.50;99.90;;;;;;5123540;27;20035;-55
2023/11/22 01:17:57;;;;;;;9.15;7.00;;;5.50;99.90;;;;;;5134781;27;20039;-55
2023/11/22 01:20:23;;;;;;;11.02;6.53;;;5.40;99.90;;;;;;5134817;27;20110;-56
2023/11/22 01:22:49;;;;;;;11.43;6.57;;;5.40;99.90;;;;;;5131983;27;20104;-56
2023/11/22 01:25:15;;;;;;;11.38;6.43;;;5.40;99.90;;;;;;5134949;27;20047;-55
2023/11/22 01:27:41;;;;;;;12.45;7.57;;;5.30;99.90;;;;;;5134475;27;20039;-57
2023/11/22 01:30:07;;;;;;;11.27;7.13;;;5.20;99.90;;;;;;5134685;27;20035;-54
2023/11/22 01:32:34;;;;;;;13.13;7.55;;;5.20;99.90;;;;;;5134303;27;20031;-53
2023/11/22 01:35:00;;;;;;;11.23;7.55;;;5.20;99.90;;;;;;5134474;27;20046;-55
2023/11/22 01:37:27;;;;;;;9.23;7.38;;;5.10;99.90;;;;;;5116142;27;20071;-56
2023/11/22 01:39:54;;;;;;;10.57;7.07;;;5.10;99.90;;;;;;5134231;27;20115;-56
2023/11/22 01:42:20;;;;;;;17.15;7.55;;;5.00;99.90;;;;;;5134454;27;20481;-56
2023/11/22 01:44:47;;;;;;;12.23;7.85;;;5.00;99.90;;;;;;5134321;27;20035;-55
2023/11/22 01:47:14;;;;;;;14.10;8.23;;;4.90;99.90;;;;;;5134356;27;20081;-54
2023/11/22 01:49:40;;;;;;;11.57;8.43;;;4.90;99.90;;;;;;5115454;27;20117;-55
2023/11/22 01:52:06;;;;;;;14.00;9.35;;;4.90;99.90;;;;;;5134193;27;20499;-53
2023/11/22 01:54:33;;;;;;;12.98;9.35;;;4.90;99.90;;;;;;5134296;27;20046;-55
2023/11/22 01:56:59;;;;;;;11.40;7.57;;;5.00;99.90;;;;;;5134026;27;20477;-55
2023/11/22 01:59:31;;;;;;;9.93;7.53;;;4.90;99.90;;;;;;5134177;27;20088;-55
2023/11/22 02:01:57;;;;;;;10.90;7.70;;;4.90;99.90;;;;;;5133986;27;20046;-56
2023/11/22 02:04:23;;;;;;;11.93;7.68;;;4.90;99.90;;;;;;5133977;27;20083;-54
2023/11/22 02:06:50;;;;;;;12.88;7.68;;;4.80;99.90;;;;;;5133970;27;20078;-57
2023/11/22 02:09:17;;;;;;;12.18;7.90;;;4.70;99.90;;;;;;5133921;27;20043;-56
2023/11/22 02:11:45;;;;;;;12.15;8.20;;;4.70;99.90;;;;;;5133770;27;20049;-54
2023/11/22 02:14:11;;;;;;;9.90;7.07;;;4.60;99.90;;;;;;5121632;27;20032;-53
2023/11/22 02:16:38;;;;;;;11.13;8.00;;;4.60;99.90;;;;;;5112841;28;20028;-55
2023/11/22 02:19:07;;;;;;;12.35;7.90;;;4.60;99.90;;;;;;5113236;28;20040;-55
2023/11/22 02:21:33;;;;;;;12.25;7.43;;;4.40;99.90;;;;;;5113158;28;20047;-56
2023/11/22 02:23:59;;;;;;;10.38;7.80;;;4.40;99.90;;;;;;5108524;28;20063;-52
2023/11/22 02:26:25;;;;;;;10.45;7.68;;;4.30;99.90;;;;;;5129649;27;20485;-55
2023/11/22 02:28:51;;;;;;;11.13;7.55;;;4.30;99.90;;;;;;5133275;27;20039;-56
2023/11/22 02:31:17;;;;;;;18.80;8.73;;;4.40;99.90;;;;;;5124408;27;20036;-56
2023/11/22 02:33:43;;;;;;;10.82;8.27;;;4.30;99.90;;;;;;5103120;28;20069;-55
2023/11/22 02:36:12;;;;;;;13.25;8.88;;;4.20;99.90;;;;;;5112753;28;20047;-56
2023/11/22 02:38:38;;;;;;;12.23;8.80;;;4.20;99.90;;;;;;5112703;28;20049;-56
2023/11/22 02:41:04;;;;;;;16.30;8.73;;;4.10;99.90;;;;;;5112525;28;20102;-57
2023/11/22 02:43:30;;;;;;;13.27;8.48;;;4.00;99.90;;;;;;5112858;28;20075;-56
2023/11/22 02:45:56;;;;;;;15.63;8.13;;;4.00;99.90;;;;;;5112835;28;20124;-54
2023/11/22 02:48:22;;;;;;;11.65;8.38;;;4.00;99.90;;;;;;5107761;28;20056;-54
2023/11/22 02:50:48;;;;;;;12.80;7.80;;;3.90;99.90;;;;;;5111415;27;20039;-55
2023/11/22 02:53:14;;;;;;;12.98;7.47;;;3.80;99.90;;;;;;5133082;27;20042;-56
2023/11/22 02:55:40;;;;;;;16.27;8.55;;;3.90;99.90;;;;;;5132854;27;20035;-56
2023/11/22 02:58:06;;;;;;;14.35;7.95;;;3.80;99.90;;;;;;5132891;27;20529;-56
2023/11/22 03:00:34;;;;;;;13.27;8.68;;;3.90;99.90;;;;;;5132709;27;20031;-54
2023/11/22 03:03:00;;;;;;;13.95;7.72;;;3.90;99.90;;;;;;5114559;28;20485;-56
2023/11/22 03:05:26;;;;;;;13.88;7.97;;;4.00;99.90;;;;;;5132864;27;20031;-57
2023/11/22 03:07:52;;;;;;;12.93;8.40;;;3.90;99.90;;;;;;5133186;27;20035;-58
2023/11/22 03:10:18;;;;;;;11.80;7.55;;;3.90;99.90;;;;;;5132782;27;20115;-55
2023/11/22 03:12:44;;;;;;;9.73;7.00;;;3.90;99.90;;;;;;5133058;27;20126;-54
2023/11/22 03:15:11;;;;;;;13.35;7.72;;;3.90;99.90;;;;;;5132446;27;20046;-56
2023/11/22 03:17:38;;;;;;;11.85;7.50;;;3.80;99.90;;;;;;5114274;27;20546;-58
2023/11/22 03:20:09;;;;;;;11.02;7.72;;;3.80;99.90;;;;;;5114526;27;20035;-56
2023/11/22 03:22:35;;;;;;;11.65;6.43;;;3.80;99.90;;;;;;5122226;27;20051;-54
2023/11/22 03:25:03;;;;;;;11.07;6.93;;;3.80;99.90;;;;;;5103192;28;20031;-56
2023/11/22 03:27:29;;;;;;;14.05;7.45;;;3.80;99.90;;;;;;5111893;28;20046;-56
2023/11/22 03:29:55;;;;;;;13.30;7.45;;;3.70;99.90;;;;;;5129738;27;20383;-53
2023/11/22 03:32:21;;;;;;;13.88;7.95;;;3.70;99.90;;;;;;5132599;28;20039;-56
2023/11/22 03:34:47;;;;;;;11.18;7.95;;;3.60;99.90;;;;;;5132635;28;20096;-56
2023/11/22 03:37:13;;;;;;;10.18;7.22;;;3.60;99.90;;;;;;5132176;28;20028;-56
2023/11/22 03:39:38;;;;;;;15.20;7.13;;;3.50;99.90;;;;;;5132522;28;20035;-58
2023/11/22 03:42:05;;;;;;;11.73;7.95;;;3.50;99.90;;;;;;5132340;28;20050;-56
2023/11/22 03:44:30;;;;;;;10.85;7.22;;;3.50;99.90;;;;;;5132636;28;20035;-56
2023/11/22 03:46:56;;;;;;;13.35;8.15;;;3.50;99.90;;;;;;5132604;28;20043;-55
2023/11/22 03:49:22;;;;;;;13.52;8.77;;;3.50;99.90;;;;;;5133883;27;20390;-56
2023/11/22 03:51:48;;;;;;;11.95;7.65;;;3.50;99.90;;;;;;5118249;27;20050;-58
2023/11/22 03:54:14;;;;;;;14.35;8.43;;;3.40;99.90;;;;;;5118358;27;20389;-57
2023/11/22 03:56:39;;;;;;;13.05;8.68;;;3.60;99.90;;;;;;5136505;27;20043;-55
2023/11/22 03:59:05;;;;;;;10.02;7.22;;;3.40;99.90;;;;;;5136543;27;20075;-56
2023/11/22 04:01:31;;;;;;;11.23;7.53;;;3.50;99.90;;;;;;5136986;27;20035;-56
2023/11/22 04:03:57;;;;;;;10.75;7.38;;;3.40;99.90;;;;;;5136281;27;20027;-57
2023/11/22 04:06:23;;;;;;;15.98;8.35;;;3.40;99.90;;;;;;5136330;27;20504;-55
2023/11/22 04:08:49;;;;;;;17.25;8.63;;;3.40;99.90;;;;;;5136289;27;20066;-54
2023/11/22 04:11:16;;;;;;;9.45;7.40;;;3.30;99.90;;;;;;5136019;27;20039;-55
2023/11/22 04:13:42;;;;;;;13.32;8.45;;;3.30;99.90;;;;;;5136480;27;20114;-55
2023/11/22 04:16:08;;;;;;;15.77;9.73;;;3.20;99.90;;;;;;5136279;27;20115;-56
2023/11/22 04:18:43;;;;;;;14.27;10.68;;;3.20;99.90;;;;;;5136061;27;20038;-57
2023/11/22 04:21:08;;;;;;;17.60;10.50;;;3.10;99.90;;;;;;5136293;27;20039;-57
2023/11/22 04:23:36;;;;;;;14.65;10.55;;;3.10;99.90;;;;;;5108969;27;20044;-57
2023/11/22 04:26:02;;;;;;;16.15;11.30;;;3.10;99.90;;;;;;5115177;28;20047;-57
2023/11/22 04:28:31;;;;;;;13.05;9.82;;;3.10;99.90;;;;;;5115533;28;20040;-58
2023/11/22 04:30:58;;;;;;;16.42;9.57;;;3.10;99.90;;;;;;5106023;27;20047;-54
2023/11/22 04:33:24;;;;;;;16.23;11.05;;;3.10;99.90;;;;;;5135988;27;20046;-56
2023/11/22 04:35:50;;;;;;;23.00;10.65;;;3.20;99.90;;;;;;5117515;27;20471;-56
2023/11/22 04:38:17;;;;;;;12.45;9.13;;;3.10;99.90;;;;;;5135751;27;20491;-57
2023/11/22 04:40:43;;;;;;;15.60;9.48;;;3.10;99.90;;;;;;5135409;27;20525;-57
2023/11/22 04:43:09;;;;;;;15.82;9.43;;;3.10;99.90;;;;;;5135773;27;20067;-55
2023/11/22 04:45:35;;;;;;;14.13;9.23;;;3.10;99.90;;;;;;5135529;27;20066;-57
2023/11/22 04:48:01;;;;;;;15.38;9.68;;;3.10;99.90;;;;;;5116605;28;20435;-56
2023/11/22 04:50:27;;;;;;;16.65;9.77;;;3.10;99.90;;;;;;5134122;28;20459;-56
2023/11/22 04:52:53;;;;;;;15.98;9.48;;;3.10;99.90;;;;;;5115488;28;20122;-57
2023/11/22 04:55:19;;;;;;;13.75;8.57;;;3.10;99.90;;;;;;5134335;28;20035;-55
2023/11/22 04:57:48;;;;;;;14.15;8.95;;;3.20;99.90;;;;;;5133924;28;20446;-57
2023/11/22 05:00:14;;;;;;;11.88;8.13;;;3.20;99.90;;;;;;5133660;27;20467;-57
2023/11/22 05:02:40;;;;;;;14.48;9.05;;;3.20;99.90;;;;;;5133712;28;20054;-58
2023/11/22 05:05:07;;;;;;;16.70;9.68;;;3.20;99.90;;;;;;5134034;28;20039;-59
2023/11/22 05:07:33;;;;;;;15.32;9.02;;;3.20;99.90;;;;;;5133690;28;20043;-57
2023/11/22 05:09:58;;;;;;;17.17;9.43;;;3.30;99.90;;;;;;5133849;28;20039;-56
2023/11/22 05:12:24;;;;;;;14.18;9.85;;;3.40;99.90;;;;;;5133808;28;20046;-57
2023/11/22 05:14:50;;;;;;;18.30;9.10;;;3.20;99.90;;;;;;5133768;28;20110;-58
2023/11/22 05:17:16;;;;;;;15.15;9.00;;;3.20;99.90;;;;;;5133872;28;20114;-56
2023/11/22 05:19:42;;;;;;;22.50;10.48;;;3.20;99.90;;;;;;5133574;28;20115;-56
2023/11/22 05:22:08;;;;;;;15.32;9.52;;;3.30;99.90;;;;;;5112369;28;20035;-56
2023/11/22 05:24:34;;;;;;;18.75;10.27;;;3.30;99.90;;;;;;5100379;28;20492;-57
2023/11/22 05:27:01;;;;;;;15.15;9.07;;;3.20;99.90;;;;;;5113195;28;20092;-58
2023/11/22 05:29:27;;;;;;;14.15;9.68;;;3.30;99.90;;;;;;5094745;28;20036;-58
2023/11/22 05:31:53;;;;;;;14.80;9.45;;;3.30;99.90;;;;;;5113030;28;20039;-56
2023/11/22 05:34:18;;;;;;;17.33;10.55;;;3.40;99.90;;;;;;5123991;28;20074;-56
2023/11/22 05:36:45;;;;;;;18.38;11.35;;;3.30;99.90;;;;;;5133669;28;20405;-57
2023/11/22 05:39:11;;;;;;;18.30;11.23;;;3.40;99.90;;;;;;5133380;28;20130;-55
2023/11/22 05:41:38;;;;;;;20.35;12.13;;;3.50;99.90;;;;;;5131658;28;20535;-57
2023/11/22 05:44:04;;;;;;;19.95;11.43;;;3.50;99.90;;;;;;5131724;28;20043;-58
2023/11/22 05:46:29;;;;;;;18.92;11.95;;;3.50;99.90;;;;;;5131545;28;20587;-57
2023/11/22 05:48:55;;;;;;;18.98;12.02;;;3.50;99.90;;;;;;5093018;27;1154110;-58
2023/11/22 05:51:21;;;;;;;19.25;12.60;;;3.70;99.90;;;;;;5133980;27;20051;-56
2023/11/22 05:53:47;;;;;;;20.98;13.20;;;3.70;99.90;;;;;;5134210;27;20110;-57
2023/11/22 05:56:13;;;;;;;20.80;13.75;;;3.70;99.90;;;;;;5134168;27;20115;-56
2023/11/22 05:58:39;;;;;;;22.13;13.32;;;3.80;99.90;;;;;;5134123;27;20379;-56
2023/11/22 06:01:05;;;;;;;20.38;14.10;;;3.70;99.90;;;;;;5134148;27;20043;-55
2023/11/22 06:03:32;;;;;;;21.30;13.10;;;3.70;99.90;;;;;;5115537;27;20035;-55
2023/11/22 06:05:58;;;;;;;19.45;13.23;;;3.70;99.90;;;;;;5133739;27;20130;-55
2023/11/22 06:08:24;;;;;;;25.17;14.02;;;3.70;99.90;;;;;;5133906;27;20527;-56
2023/11/22 06:10:51;;;;;;;23.65;13.15;;;3.70;99.90;;;;;;5133580;27;20135;-56
2023/11/22 06:13:17;;;;;;;22.95;13.55;;;3.70;99.90;;;;;;5108612;28;20096;-57
2023/11/22 06:15:43;;;;;;;21.38;13.13;;;3.70;99.90;;;;;;5109963;27;20039;-55
2023/11/22 06:18:09;;;;;;;24.30;14.63;;;3.80;99.90;;;;;;5133665;27;20039;-55
2023/11/22 06:20:34;;;;;;;24.70;14.02;;;3.70;99.90;;;;;;5133639;27;20042;-57
2023/11/22 06:23:00;;;;;;;23.90;14.57;;;3.70;99.90;;;;;;5115878;27;20044;-54
2023/11/22 06:25:27;;;;;;;22.70;13.77;;;3.70;99.90;;;;;;5107366;28;20035;-59
2023/11/22 06:27:52;;;;;;;22.27;13.10;;;3.70;99.90;;;;;;5113192;28;20122;-56
2023/11/22 06:30:19;;;;;;;23.80;14.10;;;3.70;99.90;;;;;;5113148;28;20173;-55
2023/11/22 06:32:45;;;;;;;22.25;13.13;;;3.70;99.90;;;;;;5094957;28;20051;-56
2023/11/22 06:35:14;;;;;;;22.90;13.88;;;3.70;99.90;;;;;;5113136;28;20445;-57
2023/11/22 06:37:41;;;;;;;24.38;14.43;;;3.60;99.90;;;;;;5112786;28;20041;-55
2023/11/22 06:40:12;;;;;;;19.90;12.95;;;3.60;99.90;;;;;;5113003;28;20113;-55
2023/11/22 06:42:38;;;;;;;22.77;13.73;;;3.70;99.90;;;;;;5112623;28;20047;-57
2023/11/22 06:45:10;;;;;;;25.10;13.95;;;3.60;99.90;;;;;;5112683;28;20090;-57
2023/11/22 06:47:39;;;;;;;24.33;14.15;;;3.60;99.90;;;;;;5112208;28;20126;-54
2023/11/22 06:50:09;;;;;;;20.38;13.75;;;3.50;99.90;;;;;;5112727;28;20043;-57
2023/11/22 06:52:44;;;;;;;21.40;13.70;;;3.50;99.90;;;;;;5094222;28;20509;-54
2023/11/22 06:55:10;;;;;;;22.42;13.18;;;3.50;99.90;;;;;;5112698;28;20043;-57
2023/11/22 06:57:37;;;;;;;26.33;13.75;;;3.50;99.90;;;;;;5112469;28;20050;-56
2023/11/22 07:00:04;;;;;;;22.77;14.35;;;3.50;99.90;;;;;;5112845;28;20075;-58
2023/11/22 07:02:35;;;;;;;21.60;13.85;;;3.40;99.90;;;;;;5112605;28;20456;-56
2023/11/22 07:05:02;;;;;;;24.13;13.30;;;3.40;99.90;;;;;;5112258;28;20031;-55
2023/11/22 07:07:29;;;;;;;21.27;14.05;;;3.40;99.90;;;;;;5112333;28;20065;-55
2023/11/22 07:09:58;;;;;;;21.92;13.68;;;3.40;99.90;;;;;;5112106;28;20122;-56
2023/11/22 07:12:24;;;;;;;25.50;15.10;;;3.50;99.90;;;;;;5114824;27;20143;-57
2023/11/22 07:14:50;;;;;;;25.40;14.25;;;3.50;99.90;;;;;;5113760;27;20065;-57
2023/11/22 07:17:17;;;;;;;24.52;13.43;;;3.50;99.90;;;;;;5132752;27;20481;-56
2023/11/22 07:19:46;;;;;;;24.02;14.27;;;3.50;99.90;;;;;;5126585;27;20546;-57
2023/11/22 07:22:16;;;;;;;22.85;13.93;;;3.50;99.90;;;;;;5110286;28;20035;-56
2023/11/22 07:24:45;;;;;;;21.85;13.32;;;3.50;99.90;;;;;;5100394;28;20119;-57
2023/11/22 07:27:15;;;;;;;26.75;15.05;;;3.60;99.90;;;;;;5111836;28;20039;-58
2023/11/22 07:29:45;;;;;;;22.35;14.48;;;3.50;99.90;;;;;;5112146;28;20043;-55
2023/11/22 07:32:11;;;;;;;22.30;13.85;;;3.50;99.90;;;;;;5093875;28;20054;-57
2023/11/22 07:34:39;;;;;;;24.50;14.35;;;3.50;99.90;;;;;;5112078;28;20028;-55
2023/11/22 07:37:08;;;;;;;23.77;13.32;;;3.50;99.90;;;;;;5111883;28;20040;-55
2023/11/22 07:39:35;;;;;;;26.25;14.85;;;3.50;99.90;;;;;;5093838;28;20119;-56
2023/11/22 07:42:02;;;;;;;26.67;15.82;;;3.50;99.90;;;;;;5112260;28;20050;-56
2023/11/22 07:44:27;;;;;;;28.17;15.20;;;3.60;99.90;;;;;;5111498;28;20481;-57
2023/11/22 07:46:53;;;;;;;25.20;14.20;;;3.60;99.90;;;;;;5127202;28;20092;-56
2023/11/22 07:49:22;;;;;;;26.15;14.55;;;3.60;99.90;;;;;;5132195;28;20126;-55
2023/11/22 07:51:51;;;;;;;23.52;14.90;;;3.60;99.90;;;;;;5132086;28;20039;-55
2023/11/22 07:54:18;;;;;;;27.30;14.90;;;3.70;99.90;;;;;;5132399;28;20153;-57
2023/11/22 07:56:44;;;;;;;23.20;13.68;;;3.60;99.90;;;;;;5132428;28;20047;-56
2023/11/22 07:59:11;;;;;;;26.75;14.35;;;3.70;99.90;;;;;;5132676;28;20178;-55
2023/11/22 08:01:37;;;;;;;25.50;14.82;;;3.60;99.90;;;;;;5132339;28;20180;-55
2023/11/22 08:04:05;;;;;;;24.60;14.98;;;3.60;99.90;;;;;;5132219;28;20110;-57
2023/11/22 08:06:32;;;;;;;21.80;13.55;;;3.70;99.90;;;;;;5132222;28;20096;-57
2023/11/22 08:09:01;;;;;;;27.55;14.15;;;3.40;99.90;;;;;;5132095;28;20039;-56
2023/11/22 08:11:27;;;;;;;;;;;3.70;99.90;;;;;;5132438;28;20039;-57
2023/11/22 08:13:57;;;;;;;22.05;14.00;;;3.80;99.90;;;;;;5126154;28;19920;-57
2023/11/22 08:16:23;;;;;;;19.67;12.18;;;3.80;99.90;;;;;;5129059;28;20381;-57
2023/11/22 08:18:49;;;;;;;23.52;14.18;;;3.80;99.90;;;;;;5132206;28;20039;-56
2023/11/22 08:21:14;;;;;;;23.45;14.27;;;3.80;99.90;;;;;;5132091;28;20074;-55
2023/11/22 08:23:40;;;;;;;25.15;14.38;;;3.80;99.90;;;;;;5103468;28;20040;-57
2023/11/22 08:26:08;;;;;;;21.13;14.88;;;3.80;99.90;;;;;;5111400;28;20059;-57
2023/11/22 08:28:34;;;;;;;22.20;14.27;;;3.80;99.90;;;;;;5111845;28;20114;-54
2023/11/22 08:31:00;;;;;;;23.42;14.73;;;3.80;99.90;;;;;;5111236;28;20572;-58
2023/11/22 08:33:26;;;;;;;24.90;15.18;;;3.80;99.90;;;;;;5111439;28;20044;-57
2023/11/22 08:35:58;;;;;;;23.65;14.50;;;3.80;99.90;;;;;;5113515;28;20092;-55
2023/11/22 08:38:26;;;;;;;24.80;14.75;;;3.80;99.90;;;;;;5115498;28;20043;-56
2023/11/22 08:40:52;;;;;;;23.00;15.13;;;3.90;99.90;;;;;;5079910;28;20100;-58
2023/11/22 08:43:22;;;;;;;25.77;15.30;;;3.80;99.90;;;;;;5115291;28;20039;-55
2023/11/22 08:45:49;;;;;;;21.45;14.10;;;3.80;99.90;;;;;;5096772;28;20043;-56
2023/11/22 08:48:15;;;;;;;26.15;15.45;;;3.80;99.90;;;;;;5114683;28;20176;-59
2023/11/22 08:50:41;;;;;;;26.75;15.43;;;3.80;99.90;;;;;;5115240;28;20039;-57
2023/11/22 08:53:08;;;;;;;24.20;14.60;;;3.90;99.90;;;;;;5114916;28;20039;-56
2023/11/22 08:55:34;;;;;;;24.80;14.60;;;3.90;99.90;;;;;;5115106;28;20509;-56
2023/11/22 08:58:00;;;;;;;24.00;14.80;;;3.80;99.90;;;;;;5115004;28;20083;-56
2023/11/22 09:00:32;;;;;;;21.55;14.00;;;4.00;99.90;;;;;;5115078;28;20515;-55
2023/11/22 09:02:57;;;;;;;24.45;14.65;;;3.90;99.90;;;;;;5114582;28;20118;-55
2023/11/22 09:05:23;;;;;;;23.02;14.48;;;3.90;99.90;;;;;;5114861;28;20115;-55
2023/11/22 09:07:51;;;;;;;23.75;14.55;;;3.90;99.90;;;;;;5114489;28;20403;-55
2023/11/22 09:10:18;;;;;;;23.38;15.18;;;3.90;99.90;;;;;;5096421;28;20035;-55
2023/11/22 09:12:44;;;;;;;23.35;14.43;;;4.00;99.90;;;;;;5114515;28;20054;-56
2023/11/22 09:15:12;;;;;;;25.38;15.10;;;4.00;99.90;;;;;;5114500;28;20035;-53
2023/11/22 09:17:43;;;;;;;24.57;15.07;;;4.00;99.90;;;;;;5114544;28;20054;-56
2023/11/22 09:20:18;;;;;;;26.80;14.75;;;4.00;99.90;;;;;;5096366;28;20687;-54
2023/11/22 09:22:47;;;;;;;26.00;15.50;;;4.10;99.90;;;;;;5089505;28;20390;-58
2023/11/22 09:25:24;;;;;;;;;;;4.00;99.90;;;;;;5116254;27;20519;-56
2023/11/22 09:27:52;;;;;;;23.05;13.15;;;4.00;99.90;;;;;;5134835;27;19919;-55
2023/11/22 09:33:09;;;;;;;23.20;13.93;;;4.10;99.90;;;;;;5134713;27;20035;-57
2023/11/22 09:35:36;;;;;;;21.95;13.20;;;4.20;99.90;;;;;;5134344;27;20423;-56
2023/11/22 09:38:04;;;;;;;18.98;12.32;;;4.30;99.90;;;;;;5134475;27;20068;-55
2023/11/22 09:40:32;;;;;;;20.92;13.05;;;4.30;99.90;;;;;;5134149;27;20035;-56
2023/11/22 09:42:59;;;;;;;25.10;13.93;;;4.30;99.90;;;;;;5134428;27;20042;-57
2023/11/22 09:45:25;;;;;;;20.67;13.13;;;4.40;99.90;;;;;;5134530;27;20050;-58
2023/11/22 09:47:51;;;;;;;26.27;14.13;;;4.40;99.90;;;;;;5132696;27;20077;-58
2023/11/22 09:50:29;;;;;;;23.15;13.27;;;4.60;99.90;;;;;;5134382;27;20054;-57
2023/11/22 09:53:00;;;;;;;19.67;13.32;;;4.60;99.90;;;;;;5134179;27;20497;-56
2023/11/22 09:55:28;;;;;;;20.33;13.32;;;4.50;99.90;;;;;;5134243;27;20078;-57
2023/11/22 09:57:58;;;;;;;22.05;12.73;;;4.60;99.90;;;;;;5133974;27;20070;-57
2023/11/22 10:00:27;;;;;;;23.55;14.23;;;4.60;99.90;;;;;;5134256;27;20378;-56
2023/11/22 10:02:53;;;;;;;;;;;4.60;99.90;;;;;;5134252;27;20100;-55
2023/11/22 10:05:20;;;;;;;25.48;14.07;;;4.60;99.90;;;;;;5134049;27;20258;-54
2023/11/22 10:07:47;;;;;;;22.08;13.30;;;4.70;99.90;;;;;;5133742;27;20043;-56
2023/11/22 10:10:15;;;;;;;19.77;12.32;;;4.70;99.90;;;;;;5134113;27;20118;-57
2023/11/22 10:12:43;;;;;;;19.23;12.45;;;4.60;99.90;;;;;;5133919;27;20419;-56
2023/11/22 10:15:16;;;;;;;23.35;13.25;;;4.80;99.90;;;;;;5133555;27;20088;-57
2023/11/22 10:17:58;;;;;;;23.02;13.27;;;4.70;99.90;;;;;;5133803;27;20102;-55
2023/11/22 10:20:28;;;;;;;23.27;13.82;;;4.70;99.90;;;;;;5115446;27;20108;-55
2023/11/22 10:22:53;;;;;;;21.52;13.95;;;4.70;99.90;;;;;;5117963;27;20036;-56
2023/11/22 10:25:19;;;;;;;21.60;13.32;;;4.70;99.90;;;;;;5106870;28;20040;-56
2023/11/22 10:27:51;;;;;;;20.00;12.95;;;4.90;99.90;;;;;;5112808;28;20133;-56
2023/11/22 10:30:18;;;;;;;20.50;12.73;;;4.90;99.90;;;;;;5113023;28;20075;-56
2023/11/22 10:32:45;;;;;;;24.95;13.70;;;5.00;99.90;;;;;;5112662;28;20055;-54
2023/11/22 10:35:14;;;;;;;18.70;13.07;;;5.10;99.90;;;;;;5095059;28;20040;-57
2023/11/22 10:37:44;;;;;;;19.42;12.00;;;5.10;99.90;;;;;;5112792;28;20061;-57
2023/11/22 10:40:13;;;;;;;17.60;12.20;;;5.20;99.90;;;;;;5112985;28;20051;-56
2023/11/22 10:42:42;;;;;;;21.73;11.82;;;5.30;99.90;;;;;;5112793;28;20538;-56
2023/11/22 10:45:09;;;;;;;17.92;11.98;;;5.40;99.90;;;;;;5091237;28;20492;-58
2023/11/22 10:47:42;;;;;;;17.92;11.52;;;5.40;99.90;;;;;;5086783;28;20047;-56
2023/11/22 10:50:10;;;;;;;18.63;10.95;;;5.50;99.90;;;;;;5112564;28;20039;-57
2023/11/22 10:52:37;;;;;;;15.63;10.60;;;5.50;99.90;;;;;;5077342;28;20518;-56
2023/11/22 10:55:06;;;;;;;19.77;11.20;;;6.00;99.90;;;;;;5112543;28;20496;-55
2023/11/22 10:57:36;;;;;;;17.40;10.73;;;5.60;99.90;;;;;;5112192;28;20114;-55
2023/11/22 11:00:07;;;;;;;14.18;10.27;;;5.60;99.90;;;;;;5112198;28;20044;-56
2023/11/22 11:02:41;;;;;;;14.73;10.40;;;5.60;99.90;;;;;;5112428;28;20507;-57
2023/11/22 11:05:28;;;;;;;13.13;9.73;;;5.70;99.90;;;;;;5112358;28;20032;-54
2023/11/22 11:08:06;;;;;;;10.85;8.65;;;5.80;99.90;;;;;;5093911;28;20043;-56
2023/11/22 11:10:32;;;;;;;11.00;8.30;;;5.90;99.90;;;;;;5094037;28;20454;-56
2023/11/22 11:12:59;;;;;;;17.13;9.32;;;6.00;99.90;;;;;;5112230;28;20040;-58
2023/11/22 11:15:25;;;;;;;14.80;8.52;;;6.10;99.90;;;;;;5099871;28;20381;-58
2023/11/22 11:17:52;;;;;;;13.23;8.70;;;6.10;99.90;;;;;;5112253;28;20114;-56
2023/11/22 11:20:19;;;;;;;11.18;7.97;;;6.20;99.90;;;;;;5112016;28;20038;-56
2023/11/22 11:22:48;;;;;;;12.93;8.07;;;6.30;99.90;;;;;;5105451;28;20043;-56
2023/11/22 11:25:18;;;;;;;10.43;7.65;;;6.40;99.90;;;;;;5104977;28;20082;-56
2023/11/22 11:27:45;;;;;;;10.00;7.53;;;6.50;99.90;;;;;;5111954;28;20039;-58
2023/11/22 11:30:43;;;;;;;9.18;7.30;;;6.60;99.90;;;;;;5112176;28;20058;-56
2023/11/22 11:33:09;;;;;;;10.05;6.72;;;6.70;99.90;;;;;;5093480;28;20050;-57
2023/11/22 11:35:41;;;;;;;8.75;6.50;;;6.70;99.90;;;;;;5115997;27;20439;-55
2023/11/22 11:38:09;;;;;;;9.52;6.75;;;6.80;99.90;;;;;;5111926;28;20043;-58
2023/11/22 11:40:36;;;;;;;8.73;6.60;;;6.70;99.90;;;;;;5111991;28;20071;-58
2023/11/22 11:43:04;;;;;;;8.93;7.35;;;6.70;99.90;;;;;;5093506;28;20043;-58
2023/11/22 11:45:31;;;;;;;10.35;6.72;;;6.70;99.90;;;;;;5111869;28;20043;-58
2023/11/22 11:47:56;;;;;;;8.98;6.72;;;6.80;99.90;;;;;;5106493;28;20088;-58
2023/11/22 11:50:22;;;;;;;8.50;6.20;;;6.80;99.90;;;;;;5093818;28;20035;-56
2023/11/22 11:52:48;;;;;;;8.25;6.30;;;6.80;99.90;;;;;;5111414;28;20040;-56
2023/11/22 11:55:15;;;;;;;10.00;5.88;;;6.70;99.90;;;;;;5109531;28;20160;-57
2023/11/22 11:57:41;;;;;;;8.32;5.93;;;6.70;99.90;;;;;;5130088;28;20043;-57
2023/11/22 12:00:09;;;;;;;9.50;6.28;;;6.70;99.90;;;;;;5113873;28;20111;-56
2023/11/22 12:02:35;;;;;;;8.18;6.05;;;6.70;99.90;;;;;;5132122;28;20039;-59
2023/11/22 12:05:08;;;;;;;9.15;5.75;;;6.70;99.90;;;;;;5132243;28;20035;-57
2023/11/22 12:07:35;;;;;;;8.35;5.85;;;6.60;99.90;;;;;;5132230;28;20050;-60
2023/11/22 12:10:01;;;;;;;8.63;5.88;;;6.60;99.90;;;;;;5133239;27;20046;-57
2023/11/22 12:12:28;;;;;;;7.95;6.35;;;6.60;99.90;;;;;;5136073;27;20035;-56
2023/11/22 12:14:55;;;;;;;8.50;6.72;;;6.60;99.90;;;;;;5114517;27;20574;-56
2023/11/22 12:17:22;;;;;;;11.30;6.65;;;6.60;99.90;;;;;;5126599;27;20028;-59
2023/11/22 12:19:48;;;;;;;9.18;6.82;;;6.50;99.90;;;;;;5134907;27;20103;-60
2023/11/22 12:22:16;;;;;;;8.18;6.18;;;6.50;99.90;;;;;;5111013;28;20039;-59
2023/11/22 12:24:45;;;;;;;8.98;6.38;;;6.50;99.90;;;;;;5103639;28;20044;-57
2023/11/22 12:27:11;;;;;;;8.70;6.55;;;6.50;99.90;;;;;;5114987;28;20118;-57
2023/11/22 12:29:37;;;;;;;8.43;6.05;;;6.50;99.90;;;;;;5115584;28;20118;-56
2023/11/22 12:32:03;;;;;;;9.05;6.22;;;6.40;99.90;;;;;;5115152;28;20389;-58
2023/11/22 12:34:30;;;;;;;8.15;6.55;;;6.40;99.90;;;;;;5115293;28;20393;-57
2023/11/22 12:36:56;;;;;;;8.90;6.70;;;6.40;99.90;;;;;;5109829;27;20065;-57
2023/11/22 12:39:23;;;;;;;11.02;6.57;;;6.40;99.90;;;;;;5135531;27;20027;-57
2023/11/22 12:41:53;;;;;;;8.38;6.72;;;6.30;99.90;;;;;;5135814;27;20033;-59
2023/11/22 12:44:19;;;;;;;10.05;6.65;;;6.40;99.90;;;;;;5117134;27;20050;-57
2023/11/22 12:46:49;;;;;;;10.35;6.47;;;6.30;99.90;;;;;;5127617;27;20039;-56